sensor_id;sensor_type;location;lat;lon;timestamp;P1;durP1;ratioP1;P2;durP2;ratioP2
57233;SDS011;43090;52.604;13.318;2022-11-03T00:28:53;13.93;;;5.20;;
57233;SDS011;43090;52.604;13.318;2022-11-03T00:47:17;9.23;;;4.93;;
57233;SDS011;43090;52.604;13.318;2022-11-03T01:34:15;13.88;;;5.43;;
57233;SDS011;43090;52.604;13.318;2022-11-03T01:44:58;17.08;;;4.75;;
57233;SDS011;43090;52.604;13.318;2022-11-03T01:55:57;13.93;;;5.20;;
57233;SDS011;43090;52.604;13.318;2022-11-03T02:23:33;17.00;;;5.20;;
57233;SDS011;43090;52.604;13.318;2022-11-03T02:29:45;12.60;;;4.38;;
57233;SDS011;43090;52.604;13.318;2022-11-03T02:33:03;12.85;;;4.90;;
57233;SDS011;43090;52.604;13.318;2022-11-03T02:36:14;17.88;;;4.78;;
57233;SDS011;43090;52.604;13.318;2022-11-03T02:39:53;15.10;;;4.47;;
57233;SDS011;43090;52.604;13.318;2022-11-03T02:43:11;12.05;;;5.00;;
57233;SDS011;43090;52.604;13.318;2022-11-03T02:49:51;17.92;;;5.85;;
57233;SDS011;43090;52.604;13.318;2022-11-03T02:56:18;13.43;;;4.15;;
57233;SDS011;43090;52.604;13.318;2022-11-03T03:14:17;15.45;;;4.30;;
57233;SDS011;43090;52.604;13.318;2022-11-03T04:07:09;10.18;;;3.13;;
57233;SDS011;43090;52.604;13.318;2022-11-03T04:17:51;10.95;;;3.03;;
57233;SDS011;43090;52.604;13.318;2022-11-03T04:28:33;9.57;;;2.65;;
57233;SDS011;43090;52.604;13.318;2022-11-03T04:35:32;8.00;;;2.75;;
57233;SDS011;43090;52.604;13.318;2022-11-03T04:42:34;7.32;;;2.47;;
57233;SDS011;43090;52.604;13.318;2022-11-03T05:01:44;13.98;;;2.97;;
57233;SDS011;43090;52.604;13.318;2022-11-03T05:04:36;14.73;;;3.10;;
57233;SDS011;43090;52.604;13.318;2022-11-03T06:29:55;9.25;;;3.90;;
57233;SDS011;43090;52.604;13.318;2022-11-03T06:32:56;14.80;;;5.22;;
57233;SDS011;43090;52.604;13.318;2022-11-03T06:35:27;11.65;;;4.18;;
57233;SDS011;43090;52.604;13.318;2022-11-03T06:37:55;10.63;;;3.75;;
57233;SDS011;43090;52.604;13.318;2022-11-03T06:43:09;16.38;;;4.80;;
57233;SDS011;43090;52.604;13.318;2022-11-03T06:50:23;21.10;;;7.30;;
57233;SDS011;43090;52.604;13.318;2022-11-03T06:53:12;19.40;;;4.88;;
57233;SDS011;43090;52.604;13.318;2022-11-03T06:55:50;19.13;;;4.75;;
57233;SDS011;43090;52.604;13.318;2022-11-03T09:23:32;11.70;;;4.50;;
57233;SDS011;43090;52.604;13.318;2022-11-03T09:26:19;14.38;;;3.60;;
57233;SDS011;43090;52.604;13.318;2022-11-03T09:39:59;14.35;;;3.08;;
57233;SDS011;43090;52.604;13.318;2022-11-03T15:18:31;12.07;;;2.47;;
57233;SDS011;43090;52.604;13.318;2022-11-03T15:24:27;12.32;;;2.72;;
57233;SDS011;43090;52.604;13.318;2022-11-03T15:46:28;11.90;;;3.53;;
57233;SDS011;43090;52.604;13.318;2022-11-03T16:24:16;11.18;;;3.83;;
57233;SDS011;43090;52.604;13.318;2022-11-03T16:38:15;10.68;;;3.95;;
57233;SDS011;43090;52.604;13.318;2022-11-03T16:41:17;20.33;;;5.60;;
57233;SDS011;43090;52.604;13.318;2022-11-03T16:48:17;13.18;;;5.07;;
57233;SDS011;43090;52.604;13.318;2022-11-03T16:55:18;14.75;;;3.88;;
57233;SDS011;43090;52.604;13.318;2022-11-03T17:01:50;12.52;;;4.63;;
57233;SDS011;43090;52.604;13.318;2022-11-03T17:05:10;17.67;;;5.43;;
57233;SDS011;43090;52.604;13.318;2022-11-03T17:07:38;10.45;;;3.85;;
57233;SDS011;43090;52.604;13.318;2022-11-03T17:12:31;16.20;;;3.65;;
57233;SDS011;43090;52.604;13.318;2022-11-03T17:17:25;17.15;;;3.85;;
57233;SDS011;43090;52.604;13.318;2022-11-03T17:19:51;22.85;;;3.83;;
57233;SDS011;43090;52.604;13.318;2022-11-03T17:22:18;15.65;;;3.50;;
57233;SDS011;43090;52.604;13.318;2022-11-03T17:24:46;19.30;;;3.67;;
57233;SDS011;43090;52.604;13.318;2022-11-03T17:27:19;10.07;;;3.50;;
57233;SDS011;43090;52.604;13.318;2022-11-03T17:29:50;14.25;;;3.85;;
57233;SDS011;43090;52.604;13.318;2022-11-03T17:32:36;13.55;;;4.15;;
57233;SDS011;43090;52.604;13.318;2022-11-03T17:35:16;16.80;;;3.90;;
57233;SDS011;43090;52.604;13.318;2022-11-03T17:45:37;13.25;;;4.22;;
57233;SDS011;43090;52.604;13.318;2022-11-03T17:52:07;13.05;;;3.80;;
57233;SDS011;43090;52.604;13.318;2022-11-03T17:58:53;6.78;;;3.60;;
57233;SDS011;43090;52.604;13.318;2022-11-03T18:01:20;8.20;;;3.05;;
57233;SDS011;43090;52.604;13.318;2022-11-03T18:03:52;14.75;;;3.80;;
57233;SDS011;43090;52.604;13.318;2022-11-03T18:08:46;8.57;;;3.28;;
57233;SDS011;43090;52.604;13.318;2022-11-03T18:11:23;12.48;;;3.67;;
57233;SDS011;43090;52.604;13.318;2022-11-03T18:14:10;11.73;;;4.13;;
57233;SDS011;43090;52.604;13.318;2022-11-03T18:16:37;13.73;;;4.13;;
57233;SDS011;43090;52.604;13.318;2022-11-03T18:19:05;9.30;;;3.78;;
57233;SDS011;43090;52.604;13.318;2022-11-03T18:21:36;13.43;;;3.92;;
57233;SDS011;43090;52.604;13.318;2022-11-03T18:26:47;11.15;;;3.47;;
57233;SDS011;43090;52.604;13.318;2022-11-03T18:29:16;8.70;;;4.00;;
57233;SDS011;43090;52.604;13.318;2022-11-03T18:31:45;9.52;;;3.15;;
57233;SDS011;43090;52.604;13.318;2022-11-03T18:34:21;10.52;;;3.17;;
57233;SDS011;43090;52.604;13.318;2022-11-03T18:36:49;10.68;;;3.90;;
57233;SDS011;43090;52.604;13.318;2022-11-03T18:39:22;14.60;;;4.45;;
57233;SDS011;43090;52.604;13.318;2022-11-03T18:41:51;17.25;;;4.07;;
57233;SDS011;43090;52.604;13.318;2022-11-03T18:44:22;10.07;;;3.60;;
57233;SDS011;43090;52.604;13.318;2022-11-03T18:47:00;12.90;;;3.63;;
57233;SDS011;43090;52.604;13.318;2022-11-03T18:49:29;14.85;;;4.05;;
57233;SDS011;43090;52.604;13.318;2022-11-03T18:55:14;9.13;;;3.45;;
57233;SDS011;43090;52.604;13.318;2022-11-03T18:57:42;10.45;;;3.70;;
57233;SDS011;43090;52.604;13.318;2022-11-03T19:00:14;14.55;;;4.18;;
57233;SDS011;43090;52.604;13.318;2022-11-03T19:02:44;15.52;;;3.90;;
57233;SDS011;43090;52.604;13.318;2022-11-03T19:05:16;17.23;;;4.22;;
57233;SDS011;43090;52.604;13.318;2022-11-03T19:07:50;13.95;;;3.45;;
57233;SDS011;43090;52.604;13.318;2022-11-03T19:10:19;11.05;;;3.47;;
57233;SDS011;43090;52.604;13.318;2022-11-03T19:12:47;12.40;;;3.80;;
57233;SDS011;43090;52.604;13.318;2022-11-03T19:15:21;12.63;;;4.38;;
57233;SDS011;43090;52.604;13.318;2022-11-03T19:17:50;16.88;;;3.63;;
57233;SDS011;43090;52.604;13.318;2022-11-03T19:20:19;10.73;;;3.63;;
57233;SDS011;43090;52.604;13.318;2022-11-03T19:22:50;8.73;;;3.80;;
57233;SDS011;43090;52.604;13.318;2022-11-03T19:25:20;9.52;;;4.07;;
57233;SDS011;43090;52.604;13.318;2022-11-03T19:27:49;11.27;;;4.30;;
57233;SDS011;43090;52.604;13.318;2022-11-03T19:30:16;17.98;;;4.38;;
57233;SDS011;43090;52.604;13.318;2022-11-03T19:32:50;14.73;;;3.92;;
57233;SDS011;43090;52.604;13.318;2022-11-03T19:35:31;12.30;;;4.10;;
57233;SDS011;43090;52.604;13.318;2022-11-03T19:38:09;14.68;;;4.15;;
57233;SDS011;43090;52.604;13.318;2022-11-03T19:40:39;16.95;;;5.05;;
57233;SDS011;43090;52.604;13.318;2022-11-03T19:43:29;15.02;;;4.55;;
57233;SDS011;43090;52.604;13.318;2022-11-03T19:46:20;11.55;;;4.75;;
57233;SDS011;43090;52.604;13.318;2022-11-03T19:48:55;12.55;;;4.35;;
57233;SDS011;43090;52.604;13.318;2022-11-03T19:51:23;14.05;;;3.60;;
57233;SDS011;43090;52.604;13.318;2022-11-03T19:53:53;11.18;;;3.90;;
57233;SDS011;43090;52.604;13.318;2022-11-03T19:56:20;19.95;;;4.70;;
57233;SDS011;43090;52.604;13.318;2022-11-03T19:58:47;12.85;;;4.38;;
57233;SDS011;43090;52.604;13.318;2022-11-03T20:03:43;12.57;;;4.38;;
57233;SDS011;43090;52.604;13.318;2022-11-03T20:06:21;12.95;;;4.20;;
57233;SDS011;43090;52.604;13.318;2022-11-03T20:08:50;9.10;;;3.70;;
57233;SDS011;43090;52.604;13.318;2022-11-03T20:11:28;14.02;;;3.92;;
57233;SDS011;43090;52.604;13.318;2022-11-03T20:14:02;11.15;;;4.03;;
57233;SDS011;43090;52.604;13.318;2022-11-03T20:16:35;16.35;;;4.68;;
57233;SDS011;43090;52.604;13.318;2022-11-03T20:19:22;11.90;;;4.32;;
57233;SDS011;43090;52.604;13.318;2022-11-03T20:25:38;17.30;;;5.07;;
57233;SDS011;43090;52.604;13.318;2022-11-03T20:35:45;18.15;;;4.05;;
57233;SDS011;43090;52.604;13.318;2022-11-03T20:38:17;17.63;;;4.28;;
57233;SDS011;43090;52.604;13.318;2022-11-03T20:40:45;10.13;;;4.25;;
57233;SDS011;43090;52.604;13.318;2022-11-03T20:43:36;14.85;;;4.70;;
57233;SDS011;43090;52.604;13.318;2022-11-03T20:46:22;29.73;;;5.40;;
57233;SDS011;43090;52.604;13.318;2022-11-03T20:49:06;10.05;;;4.63;;
57233;SDS011;43090;52.604;13.318;2022-11-03T20:54:56;13.00;;;4.20;;
57233;SDS011;43090;52.604;13.318;2022-11-03T20:57:26;11.13;;;5.43;;
57233;SDS011;43090;52.604;13.318;2022-11-03T20:59:59;16.88;;;4.68;;
57233;SDS011;43090;52.604;13.318;2022-11-03T21:02:46;12.68;;;4.43;;
57233;SDS011;43090;52.604;13.318;2022-11-03T21:05:35;18.15;;;5.55;;
57233;SDS011;43090;52.604;13.318;2022-11-03T21:08:21;11.18;;;4.15;;
57233;SDS011;43090;52.604;13.318;2022-11-03T21:11:09;9.85;;;4.38;;
57233;SDS011;43090;52.604;13.318;2022-11-03T21:13:59;14.65;;;4.80;;
57233;SDS011;43090;52.604;13.318;2022-11-03T21:16:56;18.55;;;4.82;;
57233;SDS011;43090;52.604;13.318;2022-11-03T21:19:47;13.48;;;5.30;;
57233;SDS011;43090;52.604;13.318;2022-11-03T21:22:42;12.13;;;5.25;;
57233;SDS011;43090;52.604;13.318;2022-11-03T21:25:19;14.23;;;5.72;;
57233;SDS011;43090;52.604;13.318;2022-11-03T21:27:51;13.15;;;4.88;;
57233;SDS011;43090;52.604;13.318;2022-11-03T21:30:22;10.52;;;5.00;;
57233;SDS011;43090;52.604;13.318;2022-11-03T21:35:48;17.88;;;4.82;;
57233;SDS011;43090;52.604;13.318;2022-11-03T21:38:21;15.95;;;5.32;;
57233;SDS011;43090;52.604;13.318;2022-11-03T21:41:22;14.25;;;5.05;;
57233;SDS011;43090;52.604;13.318;2022-11-03T21:44:15;11.80;;;5.15;;
57233;SDS011;43090;52.604;13.318;2022-11-03T21:46:53;15.05;;;5.43;;
57233;SDS011;43090;52.604;13.318;2022-11-03T21:49:23;10.35;;;5.00;;
57233;SDS011;43090;52.604;13.318;2022-11-03T21:52:14;16.80;;;5.90;;
57233;SDS011;43090;52.604;13.318;2022-11-03T21:55:31;9.77;;;5.38;;
57233;SDS011;43090;52.604;13.318;2022-11-03T21:58:25;11.93;;;5.57;;
57233;SDS011;43090;52.604;13.318;2022-11-03T22:07:42;14.65;;;5.50;;
57233;SDS011;43090;52.604;13.318;2022-11-03T22:10:29;15.32;;;5.85;;
57233;SDS011;43090;52.604;13.318;2022-11-03T22:13:08;21.63;;;5.97;;
57233;SDS011;43090;52.604;13.318;2022-11-03T22:15:36;16.85;;;6.15;;
57233;SDS011;43090;52.604;13.318;2022-11-03T22:18:39;17.67;;;6.07;;
57233;SDS011;43090;52.604;13.318;2022-11-03T22:23:52;16.67;;;6.15;;
57233;SDS011;43090;52.604;13.318;2022-11-03T22:26:37;13.48;;;5.68;;
57233;SDS011;43090;52.604;13.318;2022-11-03T22:29:26;18.05;;;6.90;;
57233;SDS011;43090;52.604;13.318;2022-11-03T22:32:28;13.90;;;6.13;;
57233;SDS011;43090;52.604;13.318;2022-11-03T22:34:55;19.30;;;6.10;;
57233;SDS011;43090;52.604;13.318;2022-11-03T22:37:40;12.50;;;5.15;;
57233;SDS011;43090;52.604;13.318;2022-11-03T22:40:07;17.95;;;5.78;;
57233;SDS011;43090;52.604;13.318;2022-11-03T22:42:52;17.13;;;6.53;;
57233;SDS011;43090;52.604;13.318;2022-11-03T22:45:39;21.23;;;6.90;;
57233;SDS011;43090;52.604;13.318;2022-11-03T22:48:16;17.77;;;5.93;;
57233;SDS011;43090;52.604;13.318;2022-11-03T22:50:43;21.20;;;6.95;;
57233;SDS011;43090;52.604;13.318;2022-11-03T22:53:10;19.08;;;5.80;;
57233;SDS011;43090;52.604;13.318;2022-11-03T22:55:59;19.33;;;6.38;;
57233;SDS011;43090;52.604;13.318;2022-11-03T22:58:27;18.08;;;6.35;;
57233;SDS011;43090;52.604;13.318;2022-11-03T23:00:56;18.35;;;6.55;;
57233;SDS011;43090;52.604;13.318;2022-11-03T23:03:22;12.45;;;6.32;;
57233;SDS011;43090;52.604;13.318;2022-11-03T23:05:49;16.58;;;6.00;;
57233;SDS011;43090;52.604;13.318;2022-11-03T23:08:15;16.08;;;6.65;;
57233;SDS011;43090;52.604;13.318;2022-11-03T23:10:42;13.32;;;5.65;;
57233;SDS011;43090;52.604;13.318;2022-11-03T23:15:35;17.05;;;7.00;;
57233;SDS011;43090;52.604;13.318;2022-11-03T23:18:08;16.77;;;6.53;;
57233;SDS011;43090;52.604;13.318;2022-11-03T23:20:54;19.55;;;6.85;;
57233;SDS011;43090;52.604;13.318;2022-11-03T23:23:34;15.82;;;7.13;;
57233;SDS011;43090;52.604;13.318;2022-11-03T23:26:21;15.32;;;6.80;;
57233;SDS011;43090;52.604;13.318;2022-11-03T23:28:49;17.70;;;7.05;;
57233;SDS011;43090;52.604;13.318;2022-11-03T23:31:16;17.27;;;7.38;;
57233;SDS011;43090;52.604;13.318;2022-11-03T23:33:43;15.98;;;6.70;;
57233;SDS011;43090;52.604;13.318;2022-11-03T23:36:10;20.63;;;7.70;;
57233;SDS011;43090;52.604;13.318;2022-11-03T23:38:39;25.77;;;7.38;;
57233;SDS011;43090;52.604;13.318;2022-11-03T23:41:07;17.63;;;8.20;;
57233;SDS011;43090;52.604;13.318;2022-11-03T23:43:35;18.92;;;7.70;;
57233;SDS011;43090;52.604;13.318;2022-11-03T23:48:47;17.63;;;8.15;;
57233;SDS011;43090;52.604;13.318;2022-11-03T23:51:15;19.80;;;7.85;;
57233;SDS011;43090;52.604;13.318;2022-11-03T23:53:44;22.13;;;7.88;;
57233;SDS011;43090;52.604;13.318;2022-11-03T23:56:12;16.75;;;6.63;;
57233;SDS011;43090;52.604;13.318;2022-11-03T23:58:58;14.32;;;7.07;;
